Terminal Aerodrome Forecast
Issued by NWS

Home | Current Version | Previous Version | Text Only | Print | Product List | Glossary On
Versions: 1 2 3 4 5 6 7 8 9 10 11 12 13 14
000
FTPA31 PHFO 171735
TAFHOG
TAF
PHOG 171735Z 1718/1818 18007KT P6SM FEW025 SCT050
     FM172000 21010G20KT P6SM VCSH FEW030 SCT050
     FM180500 14004KT P6SM FEW030 SCT050
      AMD LTD TO VIS AND WIND 1809/1816=

USA.gov is the U.S. government's official web portal to all federal, state and local government web resources and services.